sensor_id;sensor_type;location;lat;lon;timestamp;P1;durP1;ratioP1;P2;durP2;ratioP2
6825;SDS011;3451;52.476;13.316;2022-08-19T00:01:58;10.23;;;8.27;;
6825;SDS011;3451;52.476;13.316;2022-08-19T00:04:29;11.17;;;9.00;;
6825;SDS011;3451;52.476;13.316;2022-08-19T00:06:59;10.50;;;9.40;;
6825;SDS011;3451;52.476;13.316;2022-08-19T00:09:26;11.40;;;9.87;;
6825;SDS011;3451;52.476;13.316;2022-08-19T00:11:53;13.27;;;10.33;;
6825;SDS011;3451;52.476;13.316;2022-08-19T00:14:23;10.87;;;9.73;;
6825;SDS011;3451;52.476;13.316;2022-08-19T00:16:52;10.63;;;9.60;;
6825;SDS011;3451;52.476;13.316;2022-08-19T00:19:20;10.70;;;9.53;;
6825;SDS011;3451;52.476;13.316;2022-08-19T00:21:48;10.57;;;9.47;;
6825;SDS011;3451;52.476;13.316;2022-08-19T00:24:15;10.57;;;9.47;;
6825;SDS011;3451;52.476;13.316;2022-08-19T00:26:42;10.73;;;9.10;;
6825;SDS011;3451;52.476;13.316;2022-08-19T00:29:10;9.87;;;8.87;;
6825;SDS011;3451;52.476;13.316;2022-08-19T00:31:39;15.33;;;9.33;;
6825;SDS011;3451;52.476;13.316;2022-08-19T00:34:06;10.93;;;9.83;;
6825;SDS011;3451;52.476;13.316;2022-08-19T00:36:33;11.07;;;9.13;;
6825;SDS011;3451;52.476;13.316;2022-08-19T00:38:59;9.90;;;8.83;;
6825;SDS011;3451;52.476;13.316;2022-08-19T00:41:27;12.07;;;9.47;;
6825;SDS011;3451;52.476;13.316;2022-08-19T00:43:57;10.40;;;8.70;;
6825;SDS011;3451;52.476;13.316;2022-08-19T00:46:24;12.27;;;9.73;;
6825;SDS011;3451;52.476;13.316;2022-08-19T00:48:50;11.33;;;9.37;;
6825;SDS011;3451;52.476;13.316;2022-08-19T00:51:17;10.30;;;9.30;;
6825;SDS011;3451;52.476;13.316;2022-08-19T00:53:43;10.03;;;9.03;;
6825;SDS011;3451;52.476;13.316;2022-08-19T00:56:10;10.80;;;9.70;;
6825;SDS011;3451;52.476;13.316;2022-08-19T00:58:36;10.90;;;9.00;;
6825;SDS011;3451;52.476;13.316;2022-08-19T01:01:03;9.90;;;8.33;;
6825;SDS011;3451;52.476;13.316;2022-08-19T01:03:30;11.87;;;10.13;;
6825;SDS011;3451;52.476;13.316;2022-08-19T01:06:16;10.77;;;9.60;;
6825;SDS011;3451;52.476;13.316;2022-08-19T01:08:45;11.07;;;9.63;;
6825;SDS011;3451;52.476;13.316;2022-08-19T01:11:15;14.13;;;9.50;;
6825;SDS011;3451;52.476;13.316;2022-08-19T01:13:42;10.30;;;9.30;;
6825;SDS011;3451;52.476;13.316;2022-08-19T01:16:15;11.70;;;9.57;;
6825;SDS011;3451;52.476;13.316;2022-08-19T01:18:44;9.70;;;8.20;;
6825;SDS011;3451;52.476;13.316;2022-08-19T01:21:14;10.93;;;9.30;;
6825;SDS011;3451;52.476;13.316;2022-08-19T01:23:48;10.90;;;8.97;;
6825;SDS011;3451;52.476;13.316;2022-08-19T01:26:15;10.47;;;9.37;;
6825;SDS011;3451;52.476;13.316;2022-08-19T01:28:49;11.53;;;9.50;;
6825;SDS011;3451;52.476;13.316;2022-08-19T01:31:23;11.77;;;9.53;;
6825;SDS011;3451;52.476;13.316;2022-08-19T01:33:55;11.13;;;9.23;;
6825;SDS011;3451;52.476;13.316;2022-08-19T01:39:07;12.60;;;10.27;;
6825;SDS011;3451;52.476;13.316;2022-08-19T01:41:36;10.73;;;9.30;;
6825;SDS011;3451;52.476;13.316;2022-08-19T01:44:03;11.37;;;9.50;;
6825;SDS011;3451;52.476;13.316;2022-08-19T01:46:44;14.10;;;10.93;;
6825;SDS011;3451;52.476;13.316;2022-08-19T01:49:13;11.80;;;9.63;;
6825;SDS011;3451;52.476;13.316;2022-08-19T01:51:40;13.50;;;10.00;;
6825;SDS011;3451;52.476;13.316;2022-08-19T01:54:07;13.03;;;9.87;;
6825;SDS011;3451;52.476;13.316;2022-08-19T01:56:35;10.30;;;9.23;;
6825;SDS011;3451;52.476;13.316;2022-08-19T01:59:05;15.43;;;10.67;;
6825;SDS011;3451;52.476;13.316;2022-08-19T02:01:36;12.23;;;10.23;;
6825;SDS011;3451;52.476;13.316;2022-08-19T02:04:03;15.37;;;10.63;;
6825;SDS011;3451;52.476;13.316;2022-08-19T02:06:31;12.17;;;9.90;;
6825;SDS011;3451;52.476;13.316;2022-08-19T02:08:58;10.83;;;9.30;;
6825;SDS011;3451;52.476;13.316;2022-08-19T02:11:26;14.77;;;11.27;;
6825;SDS011;3451;52.476;13.316;2022-08-19T02:13:57;14.47;;;11.10;;
6825;SDS011;3451;52.476;13.316;2022-08-19T02:16:24;16.47;;;12.07;;
6825;SDS011;3451;52.476;13.316;2022-08-19T02:18:51;17.47;;;11.27;;
6825;SDS011;3451;52.476;13.316;2022-08-19T02:21:18;17.27;;;11.40;;
6825;SDS011;3451;52.476;13.316;2022-08-19T02:23:47;19.67;;;11.87;;
6825;SDS011;3451;52.476;13.316;2022-08-19T02:26:13;14.87;;;11.07;;
6825;SDS011;3451;52.476;13.316;2022-08-19T02:28:40;15.00;;;11.03;;
6825;SDS011;3451;52.476;13.316;2022-08-19T02:31:12;14.47;;;10.53;;
6825;SDS011;3451;52.476;13.316;2022-08-19T02:33:40;11.80;;;10.30;;
6825;SDS011;3451;52.476;13.316;2022-08-19T02:36:07;14.57;;;10.67;;
6825;SDS011;3451;52.476;13.316;2022-08-19T02:38:35;13.30;;;10.33;;
6825;SDS011;3451;52.476;13.316;2022-08-19T02:41:06;13.17;;;10.53;;
6825;SDS011;3451;52.476;13.316;2022-08-19T02:43:37;12.83;;;10.90;;
6825;SDS011;3451;52.476;13.316;2022-08-19T02:46:27;13.77;;;11.27;;
6825;SDS011;3451;52.476;13.316;2022-08-19T02:48:57;13.20;;;11.17;;
6825;SDS011;3451;52.476;13.316;2022-08-19T02:51:28;14.10;;;10.40;;
6825;SDS011;3451;52.476;13.316;2022-08-19T02:54:02;12.87;;;11.10;;
6825;SDS011;3451;52.476;13.316;2022-08-19T02:56:30;12.87;;;11.23;;
6825;SDS011;3451;52.476;13.316;2022-08-19T02:58:57;13.40;;;11.00;;
6825;SDS011;3451;52.476;13.316;2022-08-19T03:01:25;12.13;;;10.63;;
6825;SDS011;3451;52.476;13.316;2022-08-19T03:03:57;12.00;;;10.70;;
6825;SDS011;3451;52.476;13.316;2022-08-19T03:06:25;12.33;;;10.20;;
6825;SDS011;3451;52.476;13.316;2022-08-19T03:08:53;13.40;;;10.27;;
6825;SDS011;3451;52.476;13.316;2022-08-19T03:11:24;13.80;;;10.10;;
6825;SDS011;3451;52.476;13.316;2022-08-19T03:13:52;12.40;;;10.40;;
6825;SDS011;3451;52.476;13.316;2022-08-19T03:16:21;18.43;;;10.93;;
6825;SDS011;3451;52.476;13.316;2022-08-19T03:18:49;15.30;;;11.27;;
6825;SDS011;3451;52.476;13.316;2022-08-19T03:21:18;12.53;;;10.70;;
6825;SDS011;3451;52.476;13.316;2022-08-19T03:23:47;13.77;;;10.77;;
6825;SDS011;3451;52.476;13.316;2022-08-19T03:26:14;13.83;;;11.70;;
6825;SDS011;3451;52.476;13.316;2022-08-19T03:28:43;13.17;;;11.13;;
6825;SDS011;3451;52.476;13.316;2022-08-19T03:31:18;11.03;;;10.00;;
6825;SDS011;3451;52.476;13.316;2022-08-19T03:34:09;13.23;;;11.07;;
6825;SDS011;3451;52.476;13.316;2022-08-19T03:36:40;12.07;;;10.27;;
6825;SDS011;3451;52.476;13.316;2022-08-19T03:39:06;14.10;;;10.73;;
6825;SDS011;3451;52.476;13.316;2022-08-19T03:41:38;13.43;;;11.70;;
6825;SDS011;3451;52.476;13.316;2022-08-19T03:44:11;12.80;;;11.40;;
6825;SDS011;3451;52.476;13.316;2022-08-19T03:46:45;25.90;;;14.63;;
6825;SDS011;3451;52.476;13.316;2022-08-19T03:49:13;15.60;;;12.77;;
6825;SDS011;3451;52.476;13.316;2022-08-19T03:51:40;14.53;;;12.10;;
6825;SDS011;3451;52.476;13.316;2022-08-19T03:54:08;15.70;;;13.90;;
6825;SDS011;3451;52.476;13.316;2022-08-19T03:56:38;16.87;;;14.17;;
6825;SDS011;3451;52.476;13.316;2022-08-19T03:59:06;13.90;;;12.37;;
6825;SDS011;3451;52.476;13.316;2022-08-19T04:01:34;16.67;;;12.53;;
6825;SDS011;3451;52.476;13.316;2022-08-19T04:04:01;17.10;;;12.60;;
6825;SDS011;3451;52.476;13.316;2022-08-19T04:06:31;14.77;;;12.60;;
6825;SDS011;3451;52.476;13.316;2022-08-19T04:09:01;16.37;;;13.53;;
6825;SDS011;3451;52.476;13.316;2022-08-19T04:11:33;14.63;;;11.90;;
6825;SDS011;3451;52.476;13.316;2022-08-19T04:14:09;14.30;;;12.80;;
6825;SDS011;3451;52.476;13.316;2022-08-19T04:16:41;18.10;;;14.67;;
6825;SDS011;3451;52.476;13.316;2022-08-19T04:19:10;15.30;;;12.77;;
6825;SDS011;3451;52.476;13.316;2022-08-19T04:21:37;19.57;;;16.10;;
6825;SDS011;3451;52.476;13.316;2022-08-19T04:24:04;14.47;;;12.47;;
6825;SDS011;3451;52.476;13.316;2022-08-19T04:26:34;12.57;;;11.00;;
6825;SDS011;3451;52.476;13.316;2022-08-19T04:29:04;13.20;;;11.60;;
6825;SDS011;3451;52.476;13.316;2022-08-19T04:31:37;13.37;;;11.97;;
6825;SDS011;3451;52.476;13.316;2022-08-19T04:34:06;12.97;;;11.30;;
6825;SDS011;3451;52.476;13.316;2022-08-19T04:36:37;14.17;;;11.53;;
6825;SDS011;3451;52.476;13.316;2022-08-19T04:39:08;14.17;;;11.90;;
6825;SDS011;3451;52.476;13.316;2022-08-19T04:41:37;12.50;;;10.80;;
6825;SDS011;3451;52.476;13.316;2022-08-19T04:44:22;12.50;;;10.90;;
6825;SDS011;3451;52.476;13.316;2022-08-19T04:46:49;15.83;;;12.27;;
6825;SDS011;3451;52.476;13.316;2022-08-19T04:49:20;12.93;;;11.53;;
6825;SDS011;3451;52.476;13.316;2022-08-19T04:51:49;12.83;;;11.10;;
6825;SDS011;3451;52.476;13.316;2022-08-19T04:54:20;13.23;;;11.87;;
6825;SDS011;3451;52.476;13.316;2022-08-19T04:57:04;12.93;;;11.27;;
6825;SDS011;3451;52.476;13.316;2022-08-19T04:59:37;12.13;;;10.80;;
6825;SDS011;3451;52.476;13.316;2022-08-19T05:02:04;15.17;;;11.43;;
6825;SDS011;3451;52.476;13.316;2022-08-19T05:04:34;12.30;;;10.50;;
6825;SDS011;3451;52.476;13.316;2022-08-19T05:07:01;11.00;;;9.90;;
6825;SDS011;3451;52.476;13.316;2022-08-19T05:09:28;12.03;;;10.70;;
6825;SDS011;3451;52.476;13.316;2022-08-19T05:12:15;11.63;;;10.23;;
6825;SDS011;3451;52.476;13.316;2022-08-19T05:14:43;12.67;;;11.03;;
6825;SDS011;3451;52.476;13.316;2022-08-19T05:17:11;12.63;;;10.60;;
6825;SDS011;3451;52.476;13.316;2022-08-19T05:19:58;14.20;;;10.30;;
6825;SDS011;3451;52.476;13.316;2022-08-19T05:22:43;13.43;;;10.27;;
6825;SDS011;3451;52.476;13.316;2022-08-19T05:25:14;11.90;;;9.90;;
6825;SDS011;3451;52.476;13.316;2022-08-19T05:27:45;16.17;;;10.03;;
6825;SDS011;3451;52.476;13.316;2022-08-19T05:30:11;13.17;;;10.07;;
6825;SDS011;3451;52.476;13.316;2022-08-19T05:32:39;10.67;;;9.57;;
6825;SDS011;3451;52.476;13.316;2022-08-19T05:35:06;11.60;;;10.40;;
6825;SDS011;3451;52.476;13.316;2022-08-19T05:37:33;13.47;;;10.50;;
6825;SDS011;3451;52.476;13.316;2022-08-19T05:40:00;11.17;;;9.93;;
6825;SDS011;3451;52.476;13.316;2022-08-19T05:42:26;11.77;;;10.57;;
6825;SDS011;3451;52.476;13.316;2022-08-19T05:44:53;11.63;;;10.43;;
6825;SDS011;3451;52.476;13.316;2022-08-19T05:47:19;12.47;;;11.17;;
6825;SDS011;3451;52.476;13.316;2022-08-19T05:49:46;11.40;;;10.27;;
6825;SDS011;3451;52.476;13.316;2022-08-19T05:52:14;11.83;;;10.73;;
6825;SDS011;3451;52.476;13.316;2022-08-19T05:54:45;13.00;;;10.93;;
6825;SDS011;3451;52.476;13.316;2022-08-19T05:57:16;13.37;;;10.73;;
6825;SDS011;3451;52.476;13.316;2022-08-19T05:59:46;10.67;;;9.57;;
6825;SDS011;3451;52.476;13.316;2022-08-19T06:02:18;12.50;;;10.33;;
6825;SDS011;3451;52.476;13.316;2022-08-19T06:04:45;10.43;;;9.40;;
6825;SDS011;3451;52.476;13.316;2022-08-19T06:07:12;13.43;;;10.40;;
6825;SDS011;3451;52.476;13.316;2022-08-19T06:09:39;13.60;;;10.60;;
6825;SDS011;3451;52.476;13.316;2022-08-19T06:12:08;12.77;;;10.33;;
6825;SDS011;3451;52.476;13.316;2022-08-19T06:14:35;15.13;;;11.03;;
6825;SDS011;3451;52.476;13.316;2022-08-19T06:17:07;12.50;;;11.03;;
6825;SDS011;3451;52.476;13.316;2022-08-19T06:19:33;11.20;;;10.00;;
6825;SDS011;3451;52.476;13.316;2022-08-19T06:22:06;14.57;;;9.93;;
6825;SDS011;3451;52.476;13.316;2022-08-19T06:24:33;13.23;;;10.53;;
6825;SDS011;3451;52.476;13.316;2022-08-19T06:27:01;13.70;;;11.30;;
6825;SDS011;3451;52.476;13.316;2022-08-19T06:29:31;12.80;;;11.33;;
6825;SDS011;3451;52.476;13.316;2022-08-19T06:31:59;15.90;;;11.80;;
6825;SDS011;3451;52.476;13.316;2022-08-19T06:34:27;16.40;;;11.37;;
6825;SDS011;3451;52.476;13.316;2022-08-19T06:36:56;13.93;;;11.83;;
6825;SDS011;3451;52.476;13.316;2022-08-19T06:39:28;12.60;;;10.83;;
6825;SDS011;3451;52.476;13.316;2022-08-19T06:41:57;15.87;;;12.63;;
6825;SDS011;3451;52.476;13.316;2022-08-19T06:44:26;17.13;;;12.43;;
6825;SDS011;3451;52.476;13.316;2022-08-19T06:46:57;14.50;;;13.00;;
6825;SDS011;3451;52.476;13.316;2022-08-19T06:49:23;20.87;;;12.43;;
6825;SDS011;3451;52.476;13.316;2022-08-19T06:51:51;15.87;;;11.97;;
6825;SDS011;3451;52.476;13.316;2022-08-19T06:54:17;13.33;;;11.93;;
6825;SDS011;3451;52.476;13.316;2022-08-19T06:56:45;16.67;;;12.33;;
6825;SDS011;3451;52.476;13.316;2022-08-19T06:59:13;14.73;;;12.40;;
6825;SDS011;3451;52.476;13.316;2022-08-19T07:01:43;13.80;;;11.20;;
6825;SDS011;3451;52.476;13.316;2022-08-19T07:04:13;16.10;;;12.07;;
6825;SDS011;3451;52.476;13.316;2022-08-19T07:06:44;11.67;;;10.50;;
6825;SDS011;3451;52.476;13.316;2022-08-19T07:09:20;14.37;;;11.67;;
6825;SDS011;3451;52.476;13.316;2022-08-19T07:11:47;14.80;;;12.33;;
6825;SDS011;3451;52.476;13.316;2022-08-19T07:14:17;13.40;;;12.00;;
6825;SDS011;3451;52.476;13.316;2022-08-19T07:16:46;12.83;;;11.60;;
6825;SDS011;3451;52.476;13.316;2022-08-19T07:19:14;14.07;;;11.20;;
6825;SDS011;3451;52.476;13.316;2022-08-19T07:21:44;12.93;;;11.63;;
6825;SDS011;3451;52.476;13.316;2022-08-19T07:24:15;14.40;;;13.00;;
6825;SDS011;3451;52.476;13.316;2022-08-19T07:26:43;14.47;;;12.17;;
6825;SDS011;3451;52.476;13.316;2022-08-19T07:29:11;14.20;;;12.60;;
6825;SDS011;3451;52.476;13.316;2022-08-19T07:31:39;15.43;;;11.90;;
6825;SDS011;3451;52.476;13.316;2022-08-19T07:34:09;15.00;;;13.23;;
6825;SDS011;3451;52.476;13.316;2022-08-19T07:36:38;12.60;;;11.13;;
6825;SDS011;3451;52.476;13.316;2022-08-19T07:39:08;15.20;;;12.67;;
6825;SDS011;3451;52.476;13.316;2022-08-19T07:41:37;15.63;;;12.67;;
6825;SDS011;3451;52.476;13.316;2022-08-19T07:44:04;13.97;;;12.37;;
6825;SDS011;3451;52.476;13.316;2022-08-19T07:46:34;15.50;;;13.43;;
6825;SDS011;3451;52.476;13.316;2022-08-19T07:49:02;14.40;;;12.37;;
6825;SDS011;3451;52.476;13.316;2022-08-19T07:51:29;15.00;;;12.73;;
6825;SDS011;3451;52.476;13.316;2022-08-19T07:54:02;15.13;;;13.17;;
6825;SDS011;3451;52.476;13.316;2022-08-19T07:56:29;13.70;;;12.30;;
6825;SDS011;3451;52.476;13.316;2022-08-19T07:58:56;15.30;;;13.80;;
6825;SDS011;3451;52.476;13.316;2022-08-19T08:01:24;15.93;;;13.20;;
6825;SDS011;3451;52.476;13.316;2022-08-19T08:03:55;15.77;;;14.17;;
6825;SDS011;3451;52.476;13.316;2022-08-19T08:06:42;20.00;;;13.93;;
6825;SDS011;3451;52.476;13.316;2022-08-19T08:09:29;14.93;;;13.00;;
6825;SDS011;3451;52.476;13.316;2022-08-19T08:12:09;14.63;;;12.30;;
6825;SDS011;3451;52.476;13.316;2022-08-19T08:15:00;17.60;;;15.10;;
6825;SDS011;3451;52.476;13.316;2022-08-19T08:17:33;17.50;;;13.90;;
6825;SDS011;3451;52.476;13.316;2022-08-19T08:20:17;17.53;;;14.67;;
6825;SDS011;3451;52.476;13.316;2022-08-19T08:22:44;17.10;;;14.20;;
6825;SDS011;3451;52.476;13.316;2022-08-19T08:25:31;14.73;;;13.20;;
6825;SDS011;3451;52.476;13.316;2022-08-19T08:27:59;16.50;;;14.57;;
6825;SDS011;3451;52.476;13.316;2022-08-19T08:30:26;16.70;;;14.33;;
6825;SDS011;3451;52.476;13.316;2022-08-19T08:32:58;17.40;;;14.83;;
6825;SDS011;3451;52.476;13.316;2022-08-19T08:35:24;17.37;;;13.67;;
6825;SDS011;3451;52.476;13.316;2022-08-19T08:37:52;17.93;;;14.10;;
6825;SDS011;3451;52.476;13.316;2022-08-19T08:40:27;15.50;;;13.37;;
6825;SDS011;3451;52.476;13.316;2022-08-19T08:45:36;16.90;;;13.23;;
6825;SDS011;3451;52.476;13.316;2022-08-19T08:48:13;15.03;;;13.27;;
6825;SDS011;3451;52.476;13.316;2022-08-19T08:50:49;15.03;;;13.43;;
6825;SDS011;3451;52.476;13.316;2022-08-19T08:53:19;15.60;;;14.10;;
6825;SDS011;3451;52.476;13.316;2022-08-19T08:55:55;17.53;;;15.30;;
6825;SDS011;3451;52.476;13.316;2022-08-19T08:58:41;16.50;;;14.80;;
6825;SDS011;3451;52.476;13.316;2022-08-19T09:01:19;18.33;;;16.17;;
6825;SDS011;3451;52.476;13.316;2022-08-19T09:03:46;18.07;;;15.17;;
6825;SDS011;3451;52.476;13.316;2022-08-19T09:06:29;16.57;;;14.80;;
6825;SDS011;3451;52.476;13.316;2022-08-19T09:09:20;17.70;;;15.63;;
6825;SDS011;3451;52.476;13.316;2022-08-19T09:12:10;19.17;;;16.23;;
6825;SDS011;3451;52.476;13.316;2022-08-19T09:14:53;17.57;;;15.40;;
6825;SDS011;3451;52.476;13.316;2022-08-19T09:17:25;19.23;;;15.93;;
6825;SDS011;3451;52.476;13.316;2022-08-19T09:20:03;17.47;;;14.73;;
6825;SDS011;3451;52.476;13.316;2022-08-19T09:22:37;17.47;;;13.43;;
6825;SDS011;3451;52.476;13.316;2022-08-19T09:25:06;22.07;;;15.43;;
6825;SDS011;3451;52.476;13.316;2022-08-19T09:27:35;15.07;;;13.57;;
6825;SDS011;3451;52.476;13.316;2022-08-19T09:30:09;15.07;;;13.47;;
6825;SDS011;3451;52.476;13.316;2022-08-19T09:32:39;15.67;;;14.07;;
6825;SDS011;3451;52.476;13.316;2022-08-19T09:35:08;16.20;;;14.50;;
6825;SDS011;3451;52.476;13.316;2022-08-19T09:37:35;17.67;;;15.83;;
6825;SDS011;3451;52.476;13.316;2022-08-19T09:40:02;15.77;;;14.23;;
6825;SDS011;3451;52.476;13.316;2022-08-19T09:42:30;15.43;;;13.50;;
6825;SDS011;3451;52.476;13.316;2022-08-19T09:45:00;14.47;;;12.97;;
6825;SDS011;3451;52.476;13.316;2022-08-19T09:47:30;16.87;;;15.07;;
6825;SDS011;3451;52.476;13.316;2022-08-19T09:49:56;17.73;;;14.20;;
6825;SDS011;3451;52.476;13.316;2022-08-19T09:52:23;19.17;;;14.40;;
6825;SDS011;3451;52.476;13.316;2022-08-19T09:54:51;17.30;;;13.73;;
6825;SDS011;3451;52.476;13.316;2022-08-19T09:57:19;16.30;;;13.00;;
6825;SDS011;3451;52.476;13.316;2022-08-19T09:59:45;16.20;;;14.43;;
6825;SDS011;3451;52.476;13.316;2022-08-19T10:02:11;14.50;;;13.00;;
6825;SDS011;3451;52.476;13.316;2022-08-19T10:04:47;14.13;;;12.13;;
6825;SDS011;3451;52.476;13.316;2022-08-19T10:07:32;14.10;;;12.63;;
6825;SDS011;3451;52.476;13.316;2022-08-19T10:10:04;14.03;;;12.53;;
6825;SDS011;3451;52.476;13.316;2022-08-19T10:12:33;13.83;;;12.43;;
6825;SDS011;3451;52.476;13.316;2022-08-19T10:15:00;14.77;;;13.00;;
6825;SDS011;3451;52.476;13.316;2022-08-19T10:17:27;12.73;;;11.53;;
6825;SDS011;3451;52.476;13.316;2022-08-19T10:19:58;14.60;;;13.10;;
6825;SDS011;3451;52.476;13.316;2022-08-19T10:22:26;15.30;;;13.40;;
6825;SDS011;3451;52.476;13.316;2022-08-19T10:24:52;13.97;;;12.47;;
6825;SDS011;3451;52.476;13.316;2022-08-19T10:27:19;12.60;;;11.23;;
6825;SDS011;3451;52.476;13.316;2022-08-19T10:29:46;14.90;;;13.03;;
6825;SDS011;3451;52.476;13.316;2022-08-19T10:32:13;13.87;;;12.00;;
6825;SDS011;3451;52.476;13.316;2022-08-19T10:34:41;12.97;;;11.70;;
6825;SDS011;3451;52.476;13.316;2022-08-19T10:37:14;13.90;;;12.27;;
6825;SDS011;3451;52.476;13.316;2022-08-19T10:39:49;13.20;;;11.80;;
6825;SDS011;3451;52.476;13.316;2022-08-19T10:42:15;13.90;;;12.23;;
6825;SDS011;3451;52.476;13.316;2022-08-19T10:44:42;14.47;;;12.40;;
6825;SDS011;3451;52.476;13.316;2022-08-19T10:47:09;14.23;;;12.63;;
6825;SDS011;3451;52.476;13.316;2022-08-19T10:49:50;13.80;;;12.30;;
6825;SDS011;3451;52.476;13.316;2022-08-19T10:52:37;14.80;;;12.57;;
6825;SDS011;3451;52.476;13.316;2022-08-19T10:55:14;14.17;;;12.17;;
6825;SDS011;3451;52.476;13.316;2022-08-19T10:57:59;12.43;;;11.23;;
6825;SDS011;3451;52.476;13.316;2022-08-19T11:00:28;13.90;;;12.20;;
6825;SDS011;3451;52.476;13.316;2022-08-19T11:02:55;12.63;;;11.30;;
6825;SDS011;3451;52.476;13.316;2022-08-19T11:05:22;15.00;;;12.37;;
6825;SDS011;3451;52.476;13.316;2022-08-19T11:07:49;12.97;;;11.67;;
6825;SDS011;3451;52.476;13.316;2022-08-19T11:10:18;13.40;;;12.10;;
6825;SDS011;3451;52.476;13.316;2022-08-19T11:12:47;13.37;;;11.97;;
6825;SDS011;3451;52.476;13.316;2022-08-19T11:15:14;11.57;;;10.40;;
6825;SDS011;3451;52.476;13.316;2022-08-19T11:17:41;13.37;;;12.03;;
6825;SDS011;3451;52.476;13.316;2022-08-19T11:20:09;14.00;;;10.83;;
6825;SDS011;3451;52.476;13.316;2022-08-19T11:22:37;13.47;;;11.70;;
6825;SDS011;3451;52.476;13.316;2022-08-19T11:25:07;12.40;;;10.87;;
6825;SDS011;3451;52.476;13.316;2022-08-19T11:27:39;12.03;;;10.83;;
6825;SDS011;3451;52.476;13.316;2022-08-19T11:30:09;11.77;;;10.47;;
6825;SDS011;3451;52.476;13.316;2022-08-19T11:32:39;13.20;;;11.57;;
6825;SDS011;3451;52.476;13.316;2022-08-19T11:35:12;13.73;;;11.97;;
6825;SDS011;3451;52.476;13.316;2022-08-19T11:37:39;13.60;;;12.30;;
6825;SDS011;3451;52.476;13.316;2022-08-19T11:40:06;12.80;;;10.63;;
6825;SDS011;3451;52.476;13.316;2022-08-19T11:42:33;12.70;;;10.40;;
6825;SDS011;3451;52.476;13.316;2022-08-19T11:45:19;11.27;;;10.00;;
6825;SDS011;3451;52.476;13.316;2022-08-19T11:47:45;11.33;;;9.63;;
6825;SDS011;3451;52.476;13.316;2022-08-19T11:50:13;12.83;;;11.30;;
6825;SDS011;3451;52.476;13.316;2022-08-19T11:52:41;11.47;;;9.33;;
6825;SDS011;3451;52.476;13.316;2022-08-19T11:55:08;14.73;;;9.80;;
6825;SDS011;3451;52.476;13.316;2022-08-19T11:57:34;10.17;;;9.17;;
6825;SDS011;3451;52.476;13.316;2022-08-19T12:00:02;10.10;;;9.00;;
6825;SDS011;3451;52.476;13.316;2022-08-19T12:02:32;10.87;;;9.20;;
6825;SDS011;3451;52.476;13.316;2022-08-19T12:04:58;13.73;;;10.10;;
6825;SDS011;3451;52.476;13.316;2022-08-19T12:07:26;10.60;;;9.57;;
6825;SDS011;3451;52.476;13.316;2022-08-19T12:09:52;14.57;;;10.27;;
6825;SDS011;3451;52.476;13.316;2022-08-19T12:12:20;12.07;;;9.97;;
6825;SDS011;3451;52.476;13.316;2022-08-19T12:14:47;9.97;;;8.97;;
6825;SDS011;3451;52.476;13.316;2022-08-19T12:17:14;10.80;;;9.17;;
6825;SDS011;3451;52.476;13.316;2022-08-19T12:19:41;9.80;;;8.80;;
6825;SDS011;3451;52.476;13.316;2022-08-19T12:22:08;13.47;;;9.10;;
6825;SDS011;3451;52.476;13.316;2022-08-19T12:24:34;10.80;;;8.20;;
6825;SDS011;3451;52.476;13.316;2022-08-19T12:46:11;7.30;;;6.60;;
6825;SDS011;3451;52.476;13.316;2022-08-19T12:48:38;9.30;;;8.37;;
6825;SDS011;3451;52.476;13.316;2022-08-19T12:51:09;9.30;;;7.83;;
6825;SDS011;3451;52.476;13.316;2022-08-19T12:53:38;8.77;;;7.97;;
6825;SDS011;3451;52.476;13.316;2022-08-19T12:56:10;15.20;;;13.47;;
6825;SDS011;3451;52.476;13.316;2022-08-19T12:58:38;12.77;;;10.23;;
6825;SDS011;3451;52.476;13.316;2022-08-19T13:09:14;10.40;;;8.97;;
6825;SDS011;3451;52.476;13.316;2022-08-19T13:11:40;9.60;;;8.60;;
6825;SDS011;3451;52.476;13.316;2022-08-19T13:14:06;9.03;;;8.13;;
6825;SDS011;3451;52.476;13.316;2022-08-19T13:16:33;10.53;;;9.53;;
6825;SDS011;3451;52.476;13.316;2022-08-19T13:19:00;10.97;;;9.50;;
6825;SDS011;3451;52.476;13.316;2022-08-19T13:21:29;13.33;;;11.93;;
6825;SDS011;3451;52.476;13.316;2022-08-19T13:23:56;13.37;;;11.47;;
6825;SDS011;3451;52.476;13.316;2022-08-19T13:26:23;13.30;;;11.83;;
6825;SDS011;3451;52.476;13.316;2022-08-19T13:28:49;10.10;;;9.10;;
6825;SDS011;3451;52.476;13.316;2022-08-19T13:31:35;10.63;;;9.57;;
6825;SDS011;3451;52.476;13.316;2022-08-19T13:34:30;10.67;;;9.57;;
6825;SDS011;3451;52.476;13.316;2022-08-19T13:37:00;10.57;;;9.40;;
6825;SDS011;3451;52.476;13.316;2022-08-19T13:39:31;10.50;;;9.40;;
6825;SDS011;3451;52.476;13.316;2022-08-19T13:41:59;12.37;;;8.77;;
6825;SDS011;3451;52.476;13.316;2022-08-19T13:44:27;10.93;;;9.67;;
6825;SDS011;3451;52.476;13.316;2022-08-19T13:47:02;9.90;;;8.90;;
6825;SDS011;3451;52.476;13.316;2022-08-19T13:49:33;11.03;;;9.90;;
6825;SDS011;3451;52.476;13.316;2022-08-19T13:52:03;11.20;;;10.10;;
6825;SDS011;3451;52.476;13.316;2022-08-19T13:54:31;10.20;;;9.20;;
6825;SDS011;3451;52.476;13.316;2022-08-19T13:56:57;10.83;;;9.73;;
6825;SDS011;3451;52.476;13.316;2022-08-19T13:59:24;10.20;;;9.20;;
6825;SDS011;3451;52.476;13.316;2022-08-19T14:01:51;9.70;;;8.80;;
6825;SDS011;3451;52.476;13.316;2022-08-19T14:04:17;8.80;;;7.90;;
6825;SDS011;3451;52.476;13.316;2022-08-19T14:06:44;10.57;;;9.57;;
6825;SDS011;3451;52.476;13.316;2022-08-19T14:09:10;9.27;;;8.30;;
6825;SDS011;3451;52.476;13.316;2022-08-19T14:11:36;10.03;;;8.83;;
6825;SDS011;3451;52.476;13.316;2022-08-19T14:14:04;11.53;;;10.00;;
6825;SDS011;3451;52.476;13.316;2022-08-19T14:16:30;10.90;;;9.17;;
6825;SDS011;3451;52.476;13.316;2022-08-19T14:18:56;14.63;;;9.77;;
6825;SDS011;3451;52.476;13.316;2022-08-19T14:21:23;11.40;;;9.73;;
6825;SDS011;3451;52.476;13.316;2022-08-19T14:23:51;9.97;;;8.97;;
6825;SDS011;3451;52.476;13.316;2022-08-19T14:26:19;9.60;;;8.70;;
6825;SDS011;3451;52.476;13.316;2022-08-19T14:28:46;9.07;;;8.17;;
6825;SDS011;3451;52.476;13.316;2022-08-19T14:31:14;10.00;;;8.40;;
6825;SDS011;3451;52.476;13.316;2022-08-19T14:33:46;9.80;;;8.80;;
6825;SDS011;3451;52.476;13.316;2022-08-19T14:36:13;9.93;;;8.93;;
6825;SDS011;3451;52.476;13.316;2022-08-19T14:38:40;9.63;;;8.63;;
6825;SDS011;3451;52.476;13.316;2022-08-19T14:41:08;12.60;;;11.27;;
6825;SDS011;3451;52.476;13.316;2022-08-19T14:43:53;11.23;;;10.13;;
6825;SDS011;3451;52.476;13.316;2022-08-19T14:46:21;11.80;;;10.13;;
6825;SDS011;3451;52.476;13.316;2022-08-19T14:48:50;11.53;;;9.67;;
6825;SDS011;3451;52.476;13.316;2022-08-19T14:51:19;10.50;;;8.83;;
6825;SDS011;3451;52.476;13.316;2022-08-19T14:53:46;12.57;;;11.27;;
6825;SDS011;3451;52.476;13.316;2022-08-19T14:56:16;12.97;;;11.60;;
6825;SDS011;3451;52.476;13.316;2022-08-19T14:58:46;12.97;;;10.87;;
6825;SDS011;3451;52.476;13.316;2022-08-19T15:01:13;10.93;;;9.80;;
6825;SDS011;3451;52.476;13.316;2022-08-19T15:03:40;13.63;;;11.77;;
6825;SDS011;3451;52.476;13.316;2022-08-19T15:06:07;14.93;;;12.27;;
6825;SDS011;3451;52.476;13.316;2022-08-19T15:08:38;10.87;;;9.07;;
6825;SDS011;3451;52.476;13.316;2022-08-19T15:11:08;10.27;;;9.30;;
6825;SDS011;3451;52.476;13.316;2022-08-19T15:13:35;13.37;;;11.53;;
6825;SDS011;3451;52.476;13.316;2022-08-19T15:16:02;11.97;;;10.77;;
6825;SDS011;3451;52.476;13.316;2022-08-19T15:18:29;11.27;;;10.17;;
6825;SDS011;3451;52.476;13.316;2022-08-19T15:20:56;18.67;;;15.87;;
6825;SDS011;3451;52.476;13.316;2022-08-19T15:23:22;14.00;;;11.83;;
6825;SDS011;3451;52.476;13.316;2022-08-19T15:25:49;10.93;;;9.80;;
6825;SDS011;3451;52.476;13.316;2022-08-19T15:28:22;10.17;;;9.17;;